Aviation Digital Data Service (ADDS)

Output produced by METARs form (0330 UTC 30 June 2015)
found at http://aviationweather.gov/adds/metars/
 
KDUJ 292333Z 3000/3024 VRB04KT P6SM -SHRA BKN035 
     FM301000 19008KT 5SM BR OVC008 
     FM301500 21010KT P6SM BKN025 
     FM302000 22010G18KT P6SM VCTS BKN035CB